Time;durP1;ratioP1;P1;durP2;ratioP2;P2;SDS_P1;SDS_P2;PMS_P1;PMS_P2;Temp;Humidity;BMP_temperature;BMP_pressure;BME280_temperature;BME280_humidity;BME280_pressure;Samples;Min_cycle;Max_cycle;Signal;HPM_P1;HPM_P2
2023/06/18 00:01:09;;;;;;;17.13;12.02;;;;;;;17.07;66.35;101167.94;5041634;28;20406;-75
2023/06/18 00:03:34;;;;;;;13.48;11.30;;;;;;;17.06;66.59;101169.00;5044018;28;20029;-75
2023/06/18 00:06:00;;;;;;;13.35;10.77;;;;;;;17.04;66.68;101166.50;5054364;28;20025;-75
2023/06/18 00:08:26;;;;;;;13.13;11.05;;;;;;;17.04;66.51;101158.34;5053208;28;20035;-75
2023/06/18 00:10:52;;;;;;;14.98;12.63;;;;;;;17.01;66.69;101158.81;5048531;28;20041;-75
2023/06/18 00:13:18;;;;;;;15.02;11.95;;;;;;;16.95;67.45;101154.28;5051742;28;20021;-75
2023/06/18 00:15:43;;;;;;;16.60;12.25;;;;;;;16.97;66.98;101163.06;5046523;28;20052;-75
2023/06/18 00:18:08;;;;;;;13.98;12.07;;;;;;;16.96;67.39;101162.25;5054250;28;20500;-75
2023/06/18 00:20:34;;;;;;;12.70;10.60;;;;;;;16.95;67.24;101148.84;5052650;28;20037;-75
2023/06/18 00:23:00;;;;;;;15.25;11.45;;;;;;;16.94;67.27;101158.06;5046055;28;20039;-75
2023/06/18 00:25:25;;;;;;;12.88;11.45;;;;;;;16.90;67.74;101146.81;5045695;28;20029;-77
2023/06/18 00:27:51;;;;;;;14.95;11.05;;;;;;;16.88;67.96;101150.84;5045994;28;20021;-75
2023/06/18 00:30:16;;;;;;;15.00;11.90;;;;;;;16.84;67.89;101150.47;5053810;28;20044;-75
2023/06/18 00:32:43;;;;;;;13.02;10.40;;;;;;;16.80;67.84;101147.38;5045714;28;20395;-75
2023/06/18 00:35:12;;;;;;;14.70;10.70;;;;;;;16.83;68.05;101157.78;5052611;28;20035;-75
2023/06/18 00:37:39;;;;;;;16.17;11.00;;;;;;;16.86;68.70;101145.59;5051408;28;20481;-74
2023/06/18 00:40:05;;;;;;;14.82;11.35;;;;;;;16.89;68.56;101150.59;5048545;28;20020;-75
2023/06/18 00:42:36;;;;;;;18.15;11.82;;;;;;;16.90;69.09;101157.69;5054178;28;20123;-75
2023/06/18 00:45:03;;;;;;;14.70;12.02;;;;;;;16.88;69.09;101153.56;5048648;28;20026;-75
2023/06/18 00:47:29;;;;;;;14.68;11.98;;;;;;;16.88;69.04;101145.41;5041975;28;20029;-75
2023/06/18 00:49:55;;;;;;;15.73;11.85;;;;;;;16.89;68.92;101147.88;5036874;28;20029;-75
2023/06/18 00:52:23;;;;;;;16.38;11.88;;;;;;;16.87;69.18;101139.09;5020345;28;20124;-75
2023/06/18 00:54:52;;;;;;;14.13;11.15;;;;;;;16.86;68.94;101136.63;5019354;28;20112;-75
2023/06/18 00:57:20;;;;;;;15.25;11.95;;;;;;;16.83;68.90;101140.66;5036396;28;20036;-75
2023/06/18 00:59:46;;;;;;;14.32;12.43;;;;;;;16.82;69.13;101133.56;5028055;28;20025;-75
2023/06/18 01:02:12;;;;;;;15.25;13.50;;;;;;;16.83;69.16;101141.47;5033688;28;20037;-75
2023/06/18 01:04:38;;;;;;;18.52;13.68;;;;;;;16.83;69.22;101141.47;5053313;28;20479;-74
2023/06/18 01:07:13;;;;;;;16.40;13.38;;;;;;;16.81;69.15;101138.16;5030583;28;20092;-77
2023/06/18 01:09:38;;;;;;;18.08;13.00;;;;;;;16.81;69.23;101137.34;5033520;28;20036;-76
2023/06/18 01:12:04;;;;;;;18.60;13.55;;;;;;;16.78;69.05;101137.81;5036080;28;20074;-76
2023/06/18 01:14:30;;;;;;;14.85;11.48;;;;;;;16.76;68.96;101135.31;5034851;28;20646;-74
2023/06/18 01:16:56;;;;;;;17.15;12.40;;;;;;;16.77;68.86;101131.50;5028810;28;20037;-75
2023/06/18 01:19:27;;;;;;;21.05;13.90;;;;;;;16.75;69.15;101138.25;5048903;28;20418;-75
2023/06/18 01:22:01;;;;;;;15.52;12.90;;;;;;;16.75;68.85;101139.09;5053502;28;20069;-75
2023/06/18 01:24:29;;;;;;;15.02;12.93;;;;;;;16.75;68.90;101138.25;5018819;28;20025;-75
2023/06/18 01:27:00;;;;;;;15.10;12.45;;;;;;;16.74;68.88;101134.72;5018889;28;20480;-75
2023/06/18 01:29:26;;;;;;;14.63;11.57;;;;;;;16.74;68.78;101131.16;5017711;28;20063;-75
2023/06/18 01:31:52;;;;;;;18.17;13.13;;;;;;;16.73;69.12;101132.22;5034727;28;20037;-75
2023/06/18 01:34:17;;;;;;;16.52;12.57;;;;;;;16.73;69.02;101124.91;5052560;28;20464;-75
2023/06/18 01:37:01;;;;;;;18.70;13.85;;;;;;;16.78;68.84;101135.88;5051339;28;20489;-75
2023/06/18 01:39:54;;;;;;;19.92;13.02;;;;;;;16.81;68.68;101127.28;5034113;28;20021;-74
2023/06/18 01:42:20;;;;;;;16.25;12.98;;;;;;;16.88;68.29;101126.38;5022554;28;20447;-75
2023/06/18 01:44:53;;;;;;;15.18;12.10;;;;;;;16.93;67.92;101131.94;5017768;28;20040;-74
2023/06/18 01:47:18;;;;;;;15.70;13.10;;;;;;;16.93;67.92;101140.09;5018792;28;20423;-74
2023/06/18 01:49:44;;;;;;;17.10;13.35;;;;;;;16.95;67.79;101132.53;5034013;28;20460;-74
2023/06/18 01:52:12;;;;;;;14.52;12.10;;;;;;;16.95;67.70;101132.53;5052042;28;20094;-75
2023/06/18 01:54:37;;;;;;;17.27;13.35;;;;;;;16.95;67.29;101130.66;5035242;28;20171;-75
2023/06/18 01:57:03;;;;;;;16.73;13.23;;;;;;;16.95;67.21;101133.38;5018777;28;20532;-75
2023/06/18 01:59:29;;;;;;;18.63;12.90;;;;;;;16.93;67.09;101124.59;5026224;28;20474;-75
2023/06/18 02:01:54;;;;;;;14.70;13.07;;;;;;;16.91;67.51;101125.91;5043364;28;20034;-75
2023/06/18 02:04:20;;;;;;;15.43;12.35;;;;;;;16.90;67.50;101116.91;5051393;28;20033;-75
2023/06/18 02:06:45;;;;;;;14.75;11.73;;;;;;;16.92;67.21;101116.69;5051897;28;20082;-75
2023/06/18 02:09:11;;;;;;;14.57;11.57;;;;;;;16.90;67.37;101113.38;5043657;28;20079;-75
2023/06/18 02:11:36;;;;;;;14.10;10.80;;;;;;;16.91;67.08;101110.41;5043229;28;20033;-76
2023/06/18 02:14:02;;;;;;;16.30;12.13;;;;;;;16.87;67.58;101111.09;5052323;28;20076;-75
2023/06/18 02:16:27;;;;;;;17.02;12.15;;;;;;;16.82;67.74;101107.19;5051629;28;20462;-75
2023/06/18 02:18:53;;;;;;;17.05;12.60;;;;;;;16.83;66.94;101106.13;5049094;28;20518;-75
2023/06/18 02:21:18;;;;;;;14.57;10.95;;;;;;;16.85;67.12;101105.06;5051770;28;20029;-75
2023/06/18 02:23:46;;;;;;;16.50;12.35;;;;;;;16.88;66.97;101108.13;5043301;28;20031;-75
2023/06/18 02:26:13;;;;;;;17.42;12.10;;;;;;;16.88;66.94;101101.88;5042526;28;20090;-75
2023/06/18 02:28:39;;;;;;;14.07;11.57;;;;;;;16.91;66.56;101110.41;5048687;28;20043;-75
2023/06/18 02:31:06;;;;;;;19.35;12.93;;;;;;;16.89;66.81;101111.69;5042302;28;20457;-75
2023/06/18 02:33:34;;;;;;;17.35;11.85;;;;;;;16.87;66.80;101114.63;5042761;28;20034;-75
2023/06/18 02:35:59;;;;;;;16.20;11.90;;;;;;;16.89;66.52;101100.81;5046789;28;20040;-75
2023/06/18 02:38:25;;;;;;;13.20;10.98;;;;;;;16.89;66.58;101111.69;5047872;28;20029;-75
2023/06/18 02:40:51;;;;;;;15.38;11.88;;;;;;;16.82;66.93;101114.53;5044034;28;20040;-75
2023/06/18 02:43:16;;;;;;;16.45;12.27;;;;;;;16.78;67.04;101111.44;5047462;28;20025;-75
2023/06/18 02:45:44;;;;;;;18.58;12.48;;;;;;;16.76;67.11;101108.13;5042955;28;20045;-75
2023/06/18 02:48:10;;;;;;;15.32;11.73;;;;;;;16.75;66.97;101106.47;5046077;28;20043;-75
2023/06/18 02:50:35;;;;;;;16.48;12.55;;;;;;;16.74;67.40;101106.69;5049106;28;20408;-75
2023/06/18 02:53:01;;;;;;;16.85;12.77;;;;;;;16.73;67.51;101103.16;5043075;28;20044;-75
2023/06/18 02:55:27;;;;;;;17.23;13.05;;;;;;;16.69;67.54;101112.84;5042483;28;20090;-76
2023/06/18 02:57:52;;;;;;;17.90;13.15;;;;;;;16.64;67.85;101110.81;5044046;28;20421;-75
2023/06/18 03:00:21;;;;;;;18.67;12.57;;;;;;;16.61;67.77;101111.28;5042824;28;20522;-75
2023/06/18 03:02:46;;;;;;;14.40;12.02;;;;;;;16.60;67.59;101098.75;5050479;28;20028;-75
2023/06/18 03:05:11;;;;;;;13.48;11.02;;;;;;;16.58;67.46;101103.56;5043655;28;20027;-74
2023/06/18 03:07:37;;;;;;;16.27;12.40;;;;;;;16.57;67.97;101090.22;5050540;28;20096;-74
2023/06/18 03:10:03;;;;;;;18.67;13.40;;;;;;;16.55;67.99;101093.16;5041764;28;20029;-74
2023/06/18 03:12:28;;;;;;;17.17;12.15;;;;;;;16.51;68.14;101090.09;5051710;28;20021;-75
2023/06/18 03:14:54;;;;;;;15.75;12.90;;;;;;;16.49;68.18;101092.19;5041496;28;20113;-75
2023/06/18 03:17:19;;;;;;;15.15;11.85;;;;;;;16.42;68.40;101087.91;5042274;28;20025;-75
2023/06/18 03:19:44;;;;;;;17.17;11.90;;;;;;;16.41;68.43;101084.38;5045990;28;20020;-73
2023/06/18 03:22:10;;;;;;;18.33;13.32;;;;;;;16.36;68.71;101087.78;5041043;28;20052;-76
2023/06/18 03:24:38;;;;;;;23.67;13.30;;;;;;;16.33;68.74;101088.22;5050494;28;20487;-76
2023/06/18 03:27:04;;;;;;;14.73;11.68;;;;;;;16.33;68.77;101088.22;5051566;28;20045;-74
2023/06/18 03:29:29;;;;;;;20.02;13.80;;;;;;;16.30;68.92;101088.72;5047446;28;20384;-76
2023/06/18 03:31:54;;;;;;;16.90;12.98;;;;;;;16.26;69.14;101090.22;5044666;28;20040;-76
2023/06/18 03:34:20;;;;;;;19.83;12.75;;;;;;;16.24;69.34;101088.81;5050661;28;20052;-76
2023/06/18 03:36:46;;;;;;;18.65;13.07;;;;;;;16.26;69.39;101092.09;5049427;28;20376;-76
2023/06/18 03:39:12;;;;;;;18.08;12.75;;;;;;;16.36;69.12;101092.38;5049493;28;20025;-76
2023/06/18 03:41:37;;;;;;;14.82;12.45;;;;;;;16.40;68.80;101088.16;5043035;28;20372;-76
2023/06/18 03:44:03;;;;;;;15.20;12.05;;;;;;;16.42;68.61;101094.16;5041717;28;20540;-76
2023/06/18 03:46:28;;;;;;;15.13;12.45;;;;;;;16.41;68.94;101094.41;5041183;28;20362;-75
2023/06/18 03:48:53;;;;;;;15.25;12.70;;;;;;;16.40;68.93;101099.03;5048430;28;20017;-76
2023/06/18 03:51:19;;;;;;;16.15;12.52;;;;;;;16.41;68.93;101095.25;5046138;28;20032;-76
2023/06/18 03:53:44;;;;;;;15.52;11.75;;;;;;;16.42;68.82;101102.31;5047758;28;20334;-75
2023/06/18 03:56:10;;;;;;;15.70;12.55;;;;;;;16.45;68.57;101107.28;5043808;28;20025;-76
2023/06/18 03:58:35;;;;;;;18.25;13.55;;;;;;;16.48;68.89;101095.16;5050170;28;20392;-76
2023/06/18 04:01:03;;;;;;;18.20;12.43;;;;;;;16.49;68.64;101097.63;5049155;28;20388;-76
2023/06/18 04:03:29;;;;;;;15.70;13.00;;;;;;;16.55;68.44;101100.50;5044774;28;20531;-76
2023/06/18 04:05:54;;;;;;;16.83;12.88;;;;;;;16.60;67.93;101103.31;5039512;28;20029;-76
2023/06/18 04:08:20;;;;;;;19.17;12.80;;;;;;;16.67;68.23;101106.78;5045614;28;20103;-76
2023/06/18 04:10:47;;;;;;;17.23;11.95;;;;;;;16.74;67.87;101106.69;5047196;28;20025;-76
2023/06/18 04:13:15;;;;;;;16.20;12.45;;;;;;;16.82;67.81;101111.81;5049761;28;20403;-76
2023/06/18 04:15:41;;;;;;;15.00;12.23;;;;;;;16.87;67.60;101108.38;5048048;28;20029;-76
2023/06/18 04:18:07;;;;;;;15.32;12.73;;;;;;;16.93;67.37;101108.28;5048018;28;20472;-76
2023/06/18 04:20:32;;;;;;;17.25;12.40;;;;;;;17.00;67.12;101110.91;5038287;28;20125;-76
2023/06/18 04:22:58;;;;;;;19.13;13.00;;;;;;;17.06;67.05;101111.88;5045714;28;20067;-76
2023/06/18 04:25:23;;;;;;;17.33;13.10;;;;;;;17.12;67.41;101117.19;5049495;28;20027;-76
2023/06/18 04:27:48;;;;;;;16.67;12.55;;;;;;;17.21;66.70;101131.28;5041762;28;20021;-74
2023/06/18 04:30:16;;;;;;;16.65;12.85;;;;;;;17.32;66.24;101126.13;5049981;28;20029;-77
2023/06/18 04:32:42;;;;;;;16.48;12.60;;;;;;;17.43;65.90;101123.41;5041537;28;20033;-76
2023/06/18 04:35:07;;;;;;;17.25;12.80;;;;;;;17.60;65.59;101116.41;5050330;28;20035;-76
2023/06/18 04:37:33;;;;;;;18.77;12.57;;;;;;;17.96;64.37;101120.75;5049683;28;20021;-75
2023/06/18 04:39:58;;;;;;;17.05;13.30;;;;;;;18.36;63.27;101121.00;5049676;28;20039;-76
2023/06/18 04:42:24;;;;;;;16.75;13.05;;;;;;;18.56;62.21;101126.84;5047579;28;20029;-76
2023/06/18 04:44:49;;;;;;;15.70;12.48;;;;;;;18.57;62.14;101130.41;5050084;28;20051;-76
2023/06/18 04:47:15;;;;;;;17.25;12.82;;;;;;;18.48;62.11;101138.16;5041114;28;20083;-76
2023/06/18 04:49:42;;;;;;;15.75;12.63;;;;;;;18.57;62.14;101136.69;5052638;28;20036;-76
2023/06/18 04:52:07;;;;;;;19.63;12.68;;;;;;;18.93;60.98;101145.53;5045410;28;20108;-76
2023/06/18 04:54:33;;;;;;;16.02;13.25;;;;;;;19.31;59.81;101139.63;5025860;28;20086;-76
2023/06/18 04:56:59;;;;;;;17.48;13.13;;;;;;;19.65;58.88;101129.50;5054253;28;20037;-76
2023/06/18 04:59:25;;;;;;;16.13;12.85;;;;;;;20.06;57.83;101129.25;5051301;28;20074;-76
2023/06/18 05:01:51;;;;;;;17.98;12.93;;;;;;;20.03;57.65;101135.22;5045942;28;20423;-76
2023/06/18 05:04:16;;;;;;;16.25;12.95;;;;;;;20.45;56.44;101131.91;5054286;28;20032;-76
2023/06/18 05:06:42;;;;;;;16.67;12.80;;;;;;;20.63;56.25;101135.38;5052440;28;20060;-76
2023/06/18 05:09:07;;;;;;;15.25;12.25;;;;;;;21.27;54.39;101138.44;5045031;28;20044;-76
2023/06/18 05:11:32;;;;;;;14.50;12.70;;;;;;;21.62;52.68;101137.84;5052565;28;20029;-76
2023/06/18 05:13:58;;;;;;;15.38;12.20;;;;;;;21.99;51.82;101147.09;5048422;28;20188;-76
2023/06/18 05:16:24;;;;;;;14.52;12.95;;;;;;;21.95;52.29;101141.31;5051029;28;20025;-74
2023/06/18 05:18:49;;;;;;;14.77;12.77;;;;;;;22.21;51.03;101133.22;5050216;28;20026;-74
2023/06/18 05:21:15;;;;;;;17.52;13.43;;;;;;;22.15;51.66;101131.53;5049893;28;20028;-74
2023/06/18 05:23:47;;;;;;;18.23;13.23;;;;;;;22.55;50.79;101138.28;5043476;28;20381;-75
2023/06/18 05:26:13;;;;;;;16.88;13.00;;;;;;;22.98;49.40;101134.47;5048754;28;20495;-75
2023/06/18 05:28:38;;;;;;;14.75;13.15;;;;;;;22.59;49.75;101148.72;5034111;28;20029;-75
2023/06/18 05:31:03;;;;;;;15.77;13.30;;;;;;;22.74;50.24;101142.41;5047821;28;20033;-75
2023/06/18 05:33:29;;;;;;;18.75;12.88;;;;;;;23.00;49.36;101146.84;5050198;28;20469;-75
2023/06/18 05:35:54;;;;;;;20.77;13.18;;;;;;;22.94;49.32;101153.44;5035469;28;20028;-75
2023/06/18 05:38:19;;;;;;;16.92;13.23;;;;;;;22.98;49.65;101150.94;5046007;28;20080;-74
2023/06/18 05:40:45;;;;;;;15.30;12.85;;;;;;;22.95;50.40;101155.06;5050556;28;20024;-75
2023/06/18 05:43:10;;;;;;;14.32;12.75;;;;;;;23.20;49.71;101153.44;5051655;28;20039;-75
2023/06/18 05:45:37;;;;;;;14.10;12.05;;;;;;;23.60;48.40;101157.25;5048822;28;20043;-75
2023/06/18 05:48:03;;;;;;;12.93;11.63;;;;;;;23.77;48.25;101156.13;5053132;28;20537;-75
2023/06/18 05:50:28;;;;;;;14.50;12.50;;;;;;;23.83;48.34;101155.03;5044995;28;20055;-74
2023/06/18 05:52:53;;;;;;;15.27;11.43;;;;;;;24.42;46.69;101160.03;5049590;28;20427;-75
2023/06/18 05:55:19;;;;;;;16.33;13.15;;;;;;;24.48;46.28;101153.41;5046409;28;20044;-75
2023/06/18 05:57:46;;;;;;;15.43;11.90;;;;;;;24.25;46.63;101160.41;5041233;28;20076;-75
2023/06/18 06:00:12;;;;;;;16.35;12.70;;;;;;;24.43;47.10;101158.94;5052122;28;20028;-75
2023/06/18 06:02:37;;;;;;;15.15;12.85;;;;;;;24.64;47.18;101165.13;5052362;28;20495;-75
2023/06/18 06:05:02;;;;;;;15.63;12.93;;;;;;;24.25;47.86;101161.22;5041969;28;20093;-74
2023/06/18 06:07:28;;;;;;;13.98;12.57;;;;;;;23.94;48.45;101169.56;5051918;28;20029;-75
2023/06/18 06:09:53;;;;;;;15.10;12.98;;;;;;;24.21;47.59;101158.22;5052511;28;20021;-75
2023/06/18 06:12:19;;;;;;;14.82;12.20;;;;;;;24.46;47.01;101163.88;5043617;28;20021;-75
2023/06/18 06:14:45;;;;;;;14.05;12.13;;;;;;;24.25;47.31;101155.72;5043631;28;20040;-75
2023/06/18 06:17:10;;;;;;;18.50;13.43;;;;;;;24.52;46.93;101158.06;5050599;28;20029;-75
2023/06/18 06:19:36;;;;;;;14.05;12.35;;;;;;;25.14;45.29;101162.34;5043501;28;20074;-75
2023/06/18 06:22:01;;;;;;;13.50;11.35;;;;;;;25.74;43.88;101161.25;5051650;28;20075;-75
2023/06/18 06:24:26;;;;;;;14.38;12.88;;;;;;;26.19;42.04;101155.50;5047240;28;20531;-75
2023/06/18 06:26:52;;;;;;;14.43;11.88;;;;;;;26.23;42.25;101158.50;5047981;28;20029;-75
2023/06/18 06:29:17;;;;;;;15.40;12.45;;;;;;;26.38;41.96;101160.25;5043366;28;20056;-75
2023/06/18 06:31:42;;;;;;;17.15;13.77;;;;;;;25.91;42.58;101158.00;5044425;28;20030;-75
2023/06/18 06:34:08;;;;;;;13.60;11.82;;;;;;;25.96;42.46;101157.13;5047428;28;20028;-75
2023/06/18 06:36:34;;;;;;;14.80;13.13;;;;;;;26.41;41.54;101174.25;5047965;28;20029;-75
2023/06/18 06:39:02;;;;;;;14.45;12.63;;;;;;;27.12;39.20;101167.16;5042745;28;20037;-75
2023/06/18 06:41:27;;;;;;;15.10;12.60;;;;;;;27.87;38.43;101168.06;5036050;28;20113;-75
2023/06/18 06:43:52;;;;;;;15.07;13.57;;;;;;;27.49;38.39;101160.72;5048899;28;20032;-75
2023/06/18 06:46:18;;;;;;;17.30;13.45;;;;;;;27.26;38.95;101159.72;5050495;28;20512;-75
2023/06/18 06:48:43;;;;;;;13.93;12.07;;;;;;;28.28;37.10;101158.91;5052194;28;20021;-75
2023/06/18 06:51:08;;;;;;;13.43;12.13;;;;;;;28.25;36.92;101173.38;5043101;28;20029;-76
2023/06/18 06:53:34;;;;;;;14.00;12.45;;;;;;;28.47;37.58;101171.78;5046158;28;20431;-76
2023/06/18 06:55:59;;;;;;;13.48;11.80;;;;;;;29.98;34.73;101169.72;5040668;28;20033;-76
2023/06/18 06:58:24;;;;;;;16.55;12.25;;;;;;;29.25;35.65;101172.75;5048636;28;20033;-76
2023/06/18 07:00:50;;;;;;;16.50;12.73;;;;;;;29.56;35.00;101169.19;5050035;28;20028;-75
2023/06/18 07:03:15;;;;;;;11.02;9.73;;;;;;;30.80;33.04;101171.97;5042826;28;20028;-76
2023/06/18 07:05:41;;;;;;;14.48;11.02;;;;;;;31.29;31.38;101171.75;5038990;28;20029;-76
2023/06/18 07:08:06;;;;;;;12.95;11.50;;;;;;;31.18;32.14;101180.78;5046463;28;20041;-75
2023/06/18 07:10:34;;;;;;;13.52;12.13;;;;;;;31.42;31.37;101178.28;5052083;28;20013;-75
2023/06/18 07:12:59;;;;;;;12.10;10.80;;;;;;;31.85;31.05;101182.06;5050073;28;20051;-75
2023/06/18 07:15:25;;;;;;;13.45;11.07;;;;;;;32.43;29.79;101176.03;5042029;28;20041;-76
2023/06/18 07:17:50;;;;;;;15.90;12.63;;;;;;;31.58;31.34;101183.31;5046427;28;20026;-75
2023/06/18 07:20:17;;;;;;;14.52;11.95;;;;;;;31.74;30.84;101183.59;5039368;28;20400;-75
2023/06/18 07:22:42;;;;;;;11.05;9.95;;;;;;;32.16;29.96;101185.69;5049842;28;20025;-76
2023/06/18 07:25:07;;;;;;;16.27;11.48;;;;;;;32.81;28.57;101171.44;5049483;28;20024;-76
2023/06/18 07:27:33;;;;;;;15.38;13.10;;;;;;;31.40;30.70;101165.88;5046876;28;20477;-76
2023/06/18 07:29:59;;;;;;;15.40;12.52;;;;;;;31.07;31.12;101163.59;5049780;28;20037;-76
2023/06/18 07:32:24;;;;;;;14.32;12.15;;;;;;;31.53;31.01;101170.41;5050876;28;20028;-76
2023/06/18 07:34:49;;;;;;;13.20;11.30;;;;;;;31.45;30.22;101169.28;5042455;28;20878;-76
2023/06/18 07:37:15;;;;;;;12.48;11.18;;;;;;;30.68;30.87;101158.75;5049837;28;20481;-76
2023/06/18 07:39:40;;;;;;;12.07;10.15;;;;;;;31.43;30.01;101165.16;5032263;28;20028;-75
2023/06/18 07:42:06;;;;;;;13.05;10.85;;;;;;;31.57;30.16;101160.25;5050534;28;20538;-75
2023/06/18 07:44:31;;;;;;;13.13;10.93;;;;;;;31.09;29.71;101161.31;5042294;28;20034;-75
2023/06/18 07:46:56;;;;;;;11.52;10.32;;;;;;;32.04;28.70;101162.13;5051107;28;20020;-75
2023/06/18 07:49:22;;;;;;;13.73;11.90;;;;;;;31.69;29.76;101167.06;5041849;28;20026;-75
2023/06/18 07:51:48;;;;;;;13.68;11.93;;;;;;;31.26;31.42;101152.94;5049041;28;20132;-75
2023/06/18 07:54:13;;;;;;;13.77;12.35;;;;;;;31.02;30.88;101156.25;5049366;28;20114;-76
2023/06/18 07:56:39;;;;;;;15.10;11.80;;;;;;;31.33;30.67;101159.97;5049532;28;20040;-75
2023/06/18 07:59:04;;;;;;;12.13;10.35;;;;;;;32.72;29.14;101154.00;5042197;28;20021;-75
2023/06/18 08:01:30;;;;;;;13.02;11.70;;;;;;;33.08;28.31;101153.34;5042384;28;20041;-75
2023/06/18 08:03:55;;;;;;;12.45;10.30;;;;;;;33.14;27.96;101147.53;5048262;28;20026;-75
2023/06/18 08:06:21;;;;;;;11.68;10.48;;;;;;;33.38;26.99;101153.19;5050388;28;20036;-75
2023/06/18 08:08:50;;;;;;;14.52;11.50;;;;;;;33.08;27.79;101146.97;5047339;28;20036;-75
2023/06/18 08:11:17;;;;;;;11.88;10.65;;;;;;;33.69;26.79;101143.47;5043367;28;20036;-75
2023/06/18 08:13:42;;;;;;;11.35;10.05;;;;;;;34.34;24.61;101143.88;5041711;28;20461;-75
2023/06/18 08:16:07;;;;;;;13.43;10.10;;;;;;;33.64;26.12;101146.47;5050895;28;20039;-75
2023/06/18 08:18:34;;;;;;;12.00;9.00;;;;;;;33.18;27.23;101152.09;5040948;28;20059;-75
2023/06/18 08:21:00;;;;;;;12.27;9.95;;;;;;;33.23;27.26;101151.03;5050078;28;20035;-76
2023/06/18 08:23:26;;;;;;;12.13;9.10;;;;;;;33.60;26.95;101156.72;5049827;28;20025;-75
2023/06/18 08:25:51;;;;;;;9.80;8.80;;;;;;;34.54;24.38;101159.69;5045826;28;20024;-75
2023/06/18 08:28:16;;;;;;;10.98;9.15;;;;;;;34.28;24.34;101158.06;5048220;28;20029;-75
2023/06/18 08:30:42;;;;;;;11.25;9.45;;;;;;;34.32;24.16;101158.22;5050745;28;20055;-75
2023/06/18 08:33:08;;;;;;;10.55;9.05;;;;;;;33.69;25.93;101160.22;5035804;28;20031;-75
2023/06/18 08:35:33;;;;;;;11.50;8.50;;;;;;;34.22;25.09;101162.31;5044279;28;20037;-75
2023/06/18 08:37:59;;;;;;;11.07;8.18;;;;;;;34.83;24.18;101160.50;5053351;28;21191;-75
2023/06/18 08:40:25;;;;;;;9.35;8.30;;;;;;;34.35;24.67;101151.09;5047679;28;20087;-75
2023/06/18 08:42:51;;;;;;;11.48;9.48;;;;;;;33.64;25.22;101148.44;5015655;28;20065;-75
2023/06/18 08:45:16;;;;;;;10.00;9.00;;;;;;;32.77;27.20;101154.59;5053696;28;20431;-75
2023/06/18 08:47:41;;;;;;;10.07;9.00;;;;;;;33.07;26.63;101143.34;5047961;28;20041;-75
2023/06/18 08:50:07;;;;;;;11.25;9.43;;;;;;;33.78;25.49;101136.94;5035539;28;20423;-75
2023/06/18 08:52:32;;;;;;;9.32;7.93;;;;;;;34.17;24.48;101140.97;5034532;28;20134;-75
2023/06/18 08:55:01;;;;;;;9.55;7.75;;;;;;;33.30;26.55;101142.09;5019906;28;20066;-75
2023/06/18 08:57:37;;;;;;;11.48;8.48;;;;;;;34.34;24.41;101138.28;5034481;28;20469;-75
2023/06/18 09:00:04;;;;;;;9.30;8.20;;;;;;;34.53;24.79;101137.66;5025706;28;20028;-75
2023/06/18 09:02:29;;;;;;;8.93;7.55;;;;;;;34.34;23.51;101136.28;5050453;28;20028;-76
2023/06/18 09:04:55;;;;;;;9.60;8.60;;;;;;;32.75;26.12;101131.81;5053095;28;20029;-76
2023/06/18 09:07:21;;;;;;;12.73;8.65;;;;;;;32.16;27.26;101141.13;5042758;28;20123;-75
2023/06/18 09:09:47;;;;;;;9.48;8.40;;;;;;;32.12;27.68;101145.72;5019877;28;20077;-76
2023/06/18 09:12:12;;;;;;;8.95;7.25;;;;;;;32.66;26.34;101145.00;5042767;28;20030;-76
2023/06/18 09:14:38;;;;;;;9.68;7.93;;;;;;;31.03;28.37;101143.19;5050357;28;20059;-76
2023/06/18 09:17:04;;;;;;;12.52;7.93;;;;;;;31.33;28.10;101140.50;5045855;28;20041;-76
2023/06/18 09:19:29;;;;;;;9.38;7.80;;;;;;;31.50;27.58;101142.44;5053057;28;20060;-74
2023/06/18 09:21:55;;;;;;;10.98;7.65;;;;;;;31.11;27.41;101139.56;5001380;28;20052;-74
2023/06/18 09:24:22;;;;;;;9.02;7.07;;;;;;;30.72;28.55;101142.22;5046648;28;20036;-74
2023/06/18 09:26:49;;;;;;;10.88;8.20;;;;;;;30.09;28.60;101140.53;5044492;28;20477;-74
2023/06/18 09:29:15;;;;;;;13.77;8.07;;;;;;;29.85;30.27;101143.69;5051929;28;20030;-74
2023/06/18 09:31:44;;;;;;;12.32;8.27;;;;;;;29.39;30.81;101154.09;5050946;28;20029;-75
2023/06/18 09:34:19;;;;;;;9.57;7.90;;;;;;;29.43;29.48;101149.56;5048337;28;20045;-75
2023/06/18 09:36:45;;;;;;;11.35;8.30;;;;;;;28.93;30.33;101147.75;5039178;28;20025;-75
2023/06/18 09:39:21;;;;;;;11.23;8.05;;;;;;;29.54;29.53;101143.72;5044225;28;20477;-76
2023/06/18 09:41:49;;;;;;;14.85;8.05;;;;;;;30.35;27.73;101144.47;5051503;28;20419;-76
2023/06/18 09:44:14;;;;;;;11.23;7.70;;;;;;;30.24;28.58;101143.97;5050609;28;20040;-76
2023/06/18 09:46:49;;;;;;;10.38;8.30;;;;;;;31.00;26.79;101151.03;5053089;28;20428;-75
2023/06/18 09:49:19;;;;;;;9.65;7.35;;;;;;;31.59;26.36;101145.97;5040989;28;20025;-75
2023/06/18 09:51:49;;;;;;;9.93;7.65;;;;;;;32.92;24.05;101144.78;5047301;28;20037;-76
2023/06/18 09:54:14;;;;;;;11.55;7.53;;;;;;;32.45;24.71;101150.59;5044374;28;20025;-76
2023/06/18 09:56:40;;;;;;;9.32;7.45;;;;;;;32.26;24.93;101145.47;5049510;28;20029;-77
2023/06/18 09:59:18;;;;;;;9.52;7.38;;;;;;;32.45;25.04;101145.03;5016713;28;20064;-77
2023/06/18 10:01:47;;;;;;;9.63;7.90;;;;;;;33.07;23.95;101143.34;5047262;28;20032;-76
2023/06/18 10:04:13;;;;;;;8.00;7.20;;;;;;;33.74;23.52;101138.78;5042021;28;20421;-76
2023/06/18 10:06:40;;;;;;;10.60;7.65;;;;;;;34.60;22.19;101143.47;5051958;28;20032;-77
2023/06/18 10:09:05;;;;;;;9.45;8.07;;;;;;;34.98;21.53;101133.78;5043044;28;20052;-77
2023/06/18 10:11:31;;;;;;;8.68;7.78;;;;;;;35.29;21.36;101136.97;5033239;28;20072;-77
2023/06/18 10:13:58;;;;;;;8.90;7.57;;;;;;;34.36;22.43;101135.94;5051763;28;20120;-77
2023/06/18 10:16:28;;;;;;;9.40;7.38;;;;;;;34.85;22.44;101124.59;5035091;28;20074;-76
2023/06/18 10:18:56;;;;;;;8.18;7.03;;;;;;;34.20;22.63;101121.88;5042959;28;20380;-74
2023/06/18 10:21:25;;;;;;;11.93;7.57;;;;;;;34.43;22.17;101116.59;5026330;28;20091;-76
2023/06/18 10:23:54;;;;;;;8.60;7.00;;;;;;;35.24;20.59;101117.63;5018426;28;20109;-77
2023/06/18 10:26:20;;;;;;;9.65;7.18;;;;;;;35.84;19.59;101117.50;5033757;28;20100;-77
2023/06/18 10:28:46;;;;;;;8.73;6.80;;;;;;;36.20;19.80;101117.53;5029075;28;20033;-74
2023/06/18 10:31:12;;;;;;;7.80;6.90;;;;;;;36.77;19.48;101119.91;5031036;28;20108;-75
2023/06/18 10:33:37;;;;;;;7.30;6.38;;;;;;;37.18;17.80;101117.47;5031787;28;20036;-75
2023/06/18 10:36:03;;;;;;;12.95;6.50;;;;;;;36.70;18.11;101117.78;5017363;28;20025;-75
2023/06/18 10:38:31;;;;;;;8.43;6.30;;;;;;;36.68;17.98;101106.09;5050680;28;20421;-76
2023/06/18 10:41:11;;;;;;;6.82;5.95;;;;;;;36.00;18.04;101109.13;5045886;28;20033;-75
2023/06/18 10:43:40;;;;;;;6.60;5.78;;;;;;;35.75;17.73;101109.31;5050898;28;20063;-76
2023/06/18 10:46:13;;;;;;;6.72;6.05;;;;;;;34.94;18.86;101104.88;5043570;28;20155;-76
2023/06/18 10:48:38;;;;;;;7.47;5.95;;;;;;;34.68;18.99;101105.34;5045617;28;20039;-76
2023/06/18 10:51:13;;;;;;;6.93;5.88;;;;;;;35.51;18.38;101099.94;5051342;28;20064;-76
2023/06/18 10:53:39;;;;;;;8.15;5.60;;;;;;;35.87;17.56;101096.34;5042666;28;20041;-76
2023/06/18 10:56:04;;;;;;;6.60;5.70;;;;;;;36.16;17.62;101099.84;5044618;28;20088;-76
2023/06/18 10:58:39;;;;;;;7.28;5.63;;;;;;;36.16;17.10;101100.63;5031093;28;20029;-76
2023/06/18 11:01:05;;;;;;;8.15;5.68;;;;;;;34.37;19.17;101099.25;5051213;28;20037;-76
2023/06/18 11:03:34;;;;;;;7.25;5.78;;;;;;;34.28;18.97;101096.59;5031771;28;20048;-75
2023/06/18 11:06:01;;;;;;;7.20;5.68;;;;;;;32.93;21.07;101090.66;5051177;28;20575;-76
2023/06/18 11:08:30;;;;;;;6.55;5.80;;;;;;;34.21;18.00;101095.56;5042817;28;20100;-76